sensor_id;sensor_type;location;lat;lon;timestamp;P1;durP1;ratioP1;P2;durP2;ratioP2
79346;SDS011;68815;48.810;44.482;2023-09-12T00:02:25;6.9;;;3.4;;
79346;SDS011;68815;48.810;44.482;2023-09-12T00:05:26;7.4;;;3.5;;
79346;SDS011;68815;48.810;44.482;2023-09-12T00:08:28;8.2;;;4.1;;
79346;SDS011;68815;48.810;44.482;2023-09-12T00:11:29;9.2;;;3.9;;
79346;SDS011;68815;48.810;44.482;2023-09-12T00:14:31;8.1;;;3.5;;
79346;SDS011;68815;48.810;44.482;2023-09-12T00:17:32;8.3;;;3.8;;
79346;SDS011;68815;48.810;44.482;2023-09-12T00:20:34;8.7;;;3.5;;
79346;SDS011;68815;48.810;44.482;2023-09-12T00:23:36;8;;;3.7;;
79346;SDS011;68815;48.810;44.482;2023-09-12T00:26:37;7.6;;;3.9;;
79346;SDS011;68815;48.810;44.482;2023-09-12T00:29:38;7.7;;;3.7;;
79346;SDS011;68815;48.810;44.482;2023-09-12T00:32:40;8.2;;;3.5;;
79346;SDS011;68815;48.810;44.482;2023-09-12T00:35:41;7.8;;;3.9;;
79346;SDS011;68815;48.810;44.482;2023-09-12T00:38:44;8.7;;;3.9;;
79346;SDS011;68815;48.810;44.482;2023-09-12T00:41:45;8.6;;;3.8;;
79346;SDS011;68815;48.810;44.482;2023-09-12T00:44:46;6.6;;;3.6;;
79346;SDS011;68815;48.810;44.482;2023-09-12T00:47:48;10.7;;;4.1;;
79346;SDS011;68815;48.810;44.482;2023-09-12T00:50:50;10;;;4;;
79346;SDS011;68815;48.810;44.482;2023-09-12T00:53:53;8.3;;;3.9;;
79346;SDS011;68815;48.810;44.482;2023-09-12T00:56:56;7.1;;;3.6;;
79346;SDS011;68815;48.810;44.482;2023-09-12T00:59:57;9.7;;;4;;
79346;SDS011;68815;48.810;44.482;2023-09-12T01:02:59;7.3;;;3.9;;
79346;SDS011;68815;48.810;44.482;2023-09-12T01:06:01;8.8;;;4;;
79346;SDS011;68815;48.810;44.482;2023-09-12T01:09:03;7.7;;;4.1;;
79346;SDS011;68815;48.810;44.482;2023-09-12T01:12:05;9.3;;;4.1;;
79346;SDS011;68815;48.810;44.482;2023-09-12T01:15:07;7.6;;;4;;
79346;SDS011;68815;48.810;44.482;2023-09-12T01:18:09;9.5;;;4.4;;
79346;SDS011;68815;48.810;44.482;2023-09-12T01:21:32;7.4;;;4;;
79346;SDS011;68815;48.810;44.482;2023-09-12T01:24:48;7.6;;;3.9;;
79346;SDS011;68815;48.810;44.482;2023-09-12T01:28:02;7.6;;;4;;
79346;SDS011;68815;48.810;44.482;2023-09-12T01:31:06;8.8;;;3.8;;
79346;SDS011;68815;48.810;44.482;2023-09-12T01:34:08;7.5;;;4;;
79346;SDS011;68815;48.810;44.482;2023-09-12T01:37:10;8.7;;;4.2;;
79346;SDS011;68815;48.810;44.482;2023-09-12T01:40:12;7.9;;;3.8;;
79346;SDS011;68815;48.810;44.482;2023-09-12T01:43:13;9.1;;;4.3;;
79346;SDS011;68815;48.810;44.482;2023-09-12T01:46:18;8.6;;;4.1;;
79346;SDS011;68815;48.810;44.482;2023-09-12T01:49:22;8.6;;;4.2;;
79346;SDS011;68815;48.810;44.482;2023-09-12T01:52:25;9;;;3.8;;
79346;SDS011;68815;48.810;44.482;2023-09-12T01:55:28;7.8;;;4.4;;
79346;SDS011;68815;48.810;44.482;2023-09-12T01:58:30;7.5;;;3.9;;
79346;SDS011;68815;48.810;44.482;2023-09-12T02:01:32;9.9;;;4.5;;
79346;SDS011;68815;48.810;44.482;2023-09-12T02:04:34;8.1;;;4.1;;
79346;SDS011;68815;48.810;44.482;2023-09-12T02:07:36;8;;;4;;
79346;SDS011;68815;48.810;44.482;2023-09-12T02:10:39;8.2;;;4.2;;
79346;SDS011;68815;48.810;44.482;2023-09-12T02:13:40;9.1;;;4.3;;
79346;SDS011;68815;48.810;44.482;2023-09-12T02:16:42;7.9;;;4.1;;
79346;SDS011;68815;48.810;44.482;2023-09-12T02:19:46;8.9;;;4.1;;
79346;SDS011;68815;48.810;44.482;2023-09-12T02:22:48;7.2;;;3.6;;
79346;SDS011;68815;48.810;44.482;2023-09-12T02:25:49;7.3;;;4.1;;
79346;SDS011;68815;48.810;44.482;2023-09-12T02:28:51;8.6;;;4.3;;
79346;SDS011;68815;48.810;44.482;2023-09-12T02:31:53;7.7;;;4.1;;
79346;SDS011;68815;48.810;44.482;2023-09-12T02:34:56;7.6;;;4.3;;
79346;SDS011;68815;48.810;44.482;2023-09-12T02:37:58;8.9;;;4;;
79346;SDS011;68815;48.810;44.482;2023-09-12T02:40:59;7.6;;;3.9;;
79346;SDS011;68815;48.810;44.482;2023-09-12T02:44:00;8.8;;;3.8;;
79346;SDS011;68815;48.810;44.482;2023-09-12T02:47:03;8.5;;;4;;
79346;SDS011;68815;48.810;44.482;2023-09-12T02:50:04;7;;;3.8;;
79346;SDS011;68815;48.810;44.482;2023-09-12T02:53:07;7.3;;;4.2;;
79346;SDS011;68815;48.810;44.482;2023-09-12T02:56:08;8.1;;;4.3;;
79346;SDS011;68815;48.810;44.482;2023-09-12T02:59:10;9;;;4.5;;
79346;SDS011;68815;48.810;44.482;2023-09-12T03:02:11;8.5;;;4;;
79346;SDS011;68815;48.810;44.482;2023-09-12T03:05:13;8.6;;;4.1;;
79346;SDS011;68815;48.810;44.482;2023-09-12T03:08:14;10.1;;;4.7;;
79346;SDS011;68815;48.810;44.482;2023-09-12T03:11:16;9.1;;;4.3;;
79346;SDS011;68815;48.810;44.482;2023-09-12T03:14:17;9.6;;;4;;
79346;SDS011;68815;48.810;44.482;2023-09-12T03:17:19;9.2;;;4.1;;
79346;SDS011;68815;48.810;44.482;2023-09-12T03:20:21;9;;;4.5;;
79346;SDS011;68815;48.810;44.482;2023-09-12T03:23:23;8.3;;;4.4;;
79346;SDS011;68815;48.810;44.482;2023-09-12T03:26:24;11.4;;;4.3;;
79346;SDS011;68815;48.810;44.482;2023-09-12T03:29:27;8.9;;;4.2;;
79346;SDS011;68815;48.810;44.482;2023-09-12T03:32:28;9;;;4.4;;
79346;SDS011;68815;48.810;44.482;2023-09-12T03:35:30;8.9;;;4.3;;
79346;SDS011;68815;48.810;44.482;2023-09-12T03:38:33;10.1;;;4.1;;
79346;SDS011;68815;48.810;44.482;2023-09-12T03:41:35;9.1;;;4.1;;
79346;SDS011;68815;48.810;44.482;2023-09-12T03:44:36;9.4;;;4;;
79346;SDS011;68815;48.810;44.482;2023-09-12T03:47:38;9.4;;;4.6;;
79346;SDS011;68815;48.810;44.482;2023-09-12T03:50:39;9.1;;;4.2;;
79346;SDS011;68815;48.810;44.482;2023-09-12T03:53:40;8.5;;;4.1;;
79346;SDS011;68815;48.810;44.482;2023-09-12T03:56:42;9.4;;;4.3;;
79346;SDS011;68815;48.810;44.482;2023-09-12T03:59:43;8.9;;;4.1;;
79346;SDS011;68815;48.810;44.482;2023-09-12T04:02:45;8.5;;;4.3;;
79346;SDS011;68815;48.810;44.482;2023-09-12T04:05:46;8.3;;;4.2;;
79346;SDS011;68815;48.810;44.482;2023-09-12T04:08:48;8.2;;;3.9;;
79346;SDS011;68815;48.810;44.482;2023-09-12T04:11:49;9;;;4.3;;
79346;SDS011;68815;48.810;44.482;2023-09-12T04:14:52;9.6;;;4.1;;
79346;SDS011;68815;48.810;44.482;2023-09-12T04:17:53;7.9;;;4;;
79346;SDS011;68815;48.810;44.482;2023-09-12T04:20:55;9.3;;;4.3;;
79346;SDS011;68815;48.810;44.482;2023-09-12T04:23:56;8.5;;;4.5;;
79346;SDS011;68815;48.810;44.482;2023-09-12T04:26:58;8.5;;;3.9;;
79346;SDS011;68815;48.810;44.482;2023-09-12T04:30:00;9.3;;;4.3;;
79346;SDS011;68815;48.810;44.482;2023-09-12T04:33:02;9.4;;;4.3;;
79346;SDS011;68815;48.810;44.482;2023-09-12T04:36:04;9.9;;;4.2;;
79346;SDS011;68815;48.810;44.482;2023-09-12T04:39:05;10.9;;;4.5;;
79346;SDS011;68815;48.810;44.482;2023-09-12T04:42:07;10.8;;;4.6;;
79346;SDS011;68815;48.810;44.482;2023-09-12T04:45:08;8.6;;;4.4;;
79346;SDS011;68815;48.810;44.482;2023-09-12T04:48:10;10.3;;;4.7;;
79346;SDS011;68815;48.810;44.482;2023-09-12T04:51:12;9.4;;;3.9;;
79346;SDS011;68815;48.810;44.482;2023-09-12T04:54:13;8.9;;;4.4;;
79346;SDS011;68815;48.810;44.482;2023-09-12T04:57:15;10;;;4.2;;
79346;SDS011;68815;48.810;44.482;2023-09-12T05:00:16;9;;;3.6;;
79346;SDS011;68815;48.810;44.482;2023-09-12T05:03:18;11.1;;;4;;
79346;SDS011;68815;48.810;44.482;2023-09-12T05:06:19;11.1;;;4.3;;
79346;SDS011;68815;48.810;44.482;2023-09-12T05:09:21;8.5;;;3.9;;
79346;SDS011;68815;48.810;44.482;2023-09-12T05:12:22;10;;;4.1;;
79346;SDS011;68815;48.810;44.482;2023-09-12T05:15:23;8.5;;;4;;
79346;SDS011;68815;48.810;44.482;2023-09-12T05:18:25;8.4;;;3.9;;
79346;SDS011;68815;48.810;44.482;2023-09-12T05:21:27;8.3;;;3.8;;
79346;SDS011;68815;48.810;44.482;2023-09-12T05:24:29;8.5;;;4.2;;
79346;SDS011;68815;48.810;44.482;2023-09-12T05:27:30;9.4;;;3.9;;
79346;SDS011;68815;48.810;44.482;2023-09-12T05:30:32;9.2;;;4.3;;
79346;SDS011;68815;48.810;44.482;2023-09-12T05:33:34;9.7;;;4.3;;
79346;SDS011;68815;48.810;44.482;2023-09-12T05:36:36;11.1;;;5.3;;
79346;SDS011;68815;48.810;44.482;2023-09-12T05:39:38;8.4;;;4.2;;
79346;SDS011;68815;48.810;44.482;2023-09-12T05:42:39;9.6;;;4.4;;
79346;SDS011;68815;48.810;44.482;2023-09-12T05:45:42;10.2;;;4.7;;
79346;SDS011;68815;48.810;44.482;2023-09-12T05:48:44;12.1;;;6.5;;
79346;SDS011;68815;48.810;44.482;2023-09-12T05:51:46;8.6;;;4.5;;
79346;SDS011;68815;48.810;44.482;2023-09-12T05:54:48;12.2;;;4.6;;
79346;SDS011;68815;48.810;44.482;2023-09-12T05:57:49;13.6;;;7.1;;
79346;SDS011;68815;48.810;44.482;2023-09-12T06:00:51;11;;;5.4;;
79346;SDS011;68815;48.810;44.482;2023-09-12T06:03:52;8.9;;;4;;
79346;SDS011;68815;48.810;44.482;2023-09-12T06:06:54;9.5;;;4.9;;
79346;SDS011;68815;48.810;44.482;2023-09-12T06:09:56;8.5;;;4.3;;
79346;SDS011;68815;48.810;44.482;2023-09-12T06:12:57;7.9;;;3.8;;
79346;SDS011;68815;48.810;44.482;2023-09-12T06:15:59;10.8;;;4.7;;
79346;SDS011;68815;48.810;44.482;2023-09-12T06:19:01;12.5;;;4.7;;
79346;SDS011;68815;48.810;44.482;2023-09-12T06:22:03;9.5;;;4.3;;
79346;SDS011;68815;48.810;44.482;2023-09-12T06:25:05;9.3;;;3.9;;
79346;SDS011;68815;48.810;44.482;2023-09-12T06:28:09;9.2;;;4.5;;
79346;SDS011;68815;48.810;44.482;2023-09-12T06:31:11;8.1;;;4.1;;
79346;SDS011;68815;48.810;44.482;2023-09-12T06:34:13;8;;;4;;
79346;SDS011;68815;48.810;44.482;2023-09-12T06:37:14;8.2;;;3.8;;
79346;SDS011;68815;48.810;44.482;2023-09-12T06:40:16;9.1;;;3.8;;
79346;SDS011;68815;48.810;44.482;2023-09-12T06:43:18;10;;;3.9;;
79346;SDS011;68815;48.810;44.482;2023-09-12T06:46:19;8.8;;;3.8;;
79346;SDS011;68815;48.810;44.482;2023-09-12T06:49:21;9.3;;;4;;
79346;SDS011;68815;48.810;44.482;2023-09-12T06:52:22;10.9;;;4;;
79346;SDS011;68815;48.810;44.482;2023-09-12T06:55:24;10;;;3.8;;
79346;SDS011;68815;48.810;44.482;2023-09-12T06:58:25;9.9;;;4.2;;
79346;SDS011;68815;48.810;44.482;2023-09-12T07:01:27;8.8;;;4.2;;
79346;SDS011;68815;48.810;44.482;2023-09-12T07:04:29;9.7;;;4;;
79346;SDS011;68815;48.810;44.482;2023-09-12T07:07:31;8.6;;;4.1;;
79346;SDS011;68815;48.810;44.482;2023-09-12T07:10:32;7.9;;;4.5;;
79346;SDS011;68815;48.810;44.482;2023-09-12T07:13:34;9.4;;;4.3;;
79346;SDS011;68815;48.810;44.482;2023-09-12T07:16:36;8.1;;;3.9;;
79346;SDS011;68815;48.810;44.482;2023-09-12T07:19:37;7.2;;;3.7;;
79346;SDS011;68815;48.810;44.482;2023-09-12T07:22:39;7.6;;;3.9;;
79346;SDS011;68815;48.810;44.482;2023-09-12T07:25:41;6.9;;;3.4;;
79346;SDS011;68815;48.810;44.482;2023-09-12T07:28:42;9.2;;;3.5;;
79346;SDS011;68815;48.810;44.482;2023-09-12T07:31:44;10.1;;;3.8;;
79346;SDS011;68815;48.810;44.482;2023-09-12T07:34:47;7.4;;;3.5;;
79346;SDS011;68815;48.810;44.482;2023-09-12T07:37:49;6.2;;;3.4;;
79346;SDS011;68815;48.810;44.482;2023-09-12T07:40:50;7.3;;;3.8;;
79346;SDS011;68815;48.810;44.482;2023-09-12T07:43:52;9.7;;;4;;
79346;SDS011;68815;48.810;44.482;2023-09-12T07:46:53;7.6;;;3.5;;
79346;SDS011;68815;48.810;44.482;2023-09-12T07:49:55;6.9;;;3.4;;
79346;SDS011;68815;48.810;44.482;2023-09-12T07:52:57;9.2;;;3.7;;
79346;SDS011;68815;48.810;44.482;2023-09-12T07:55:59;6.1;;;3;;
79346;SDS011;68815;48.810;44.482;2023-09-12T07:59:01;8.5;;;3.4;;
79346;SDS011;68815;48.810;44.482;2023-09-12T08:02:03;7.9;;;3.2;;
79346;SDS011;68815;48.810;44.482;2023-09-12T08:05:05;8.5;;;3.2;;
79346;SDS011;68815;48.810;44.482;2023-09-12T08:08:07;7.2;;;3.1;;
79346;SDS011;68815;48.810;44.482;2023-09-12T08:11:09;6.7;;;3.3;;
79346;SDS011;68815;48.810;44.482;2023-09-12T08:14:11;6.3;;;3;;
79346;SDS011;68815;48.810;44.482;2023-09-12T08:17:13;12.2;;;3.7;;
79346;SDS011;68815;48.810;44.482;2023-09-12T08:20:15;7;;;3.2;;
79346;SDS011;68815;48.810;44.482;2023-09-12T08:23:17;8.4;;;3.1;;
79346;SDS011;68815;48.810;44.482;2023-09-12T08:26:18;10.7;;;3.3;;
79346;SDS011;68815;48.810;44.482;2023-09-12T08:29:20;8.8;;;3.5;;
79346;SDS011;68815;48.810;44.482;2023-09-12T08:32:21;7.4;;;3.2;;
79346;SDS011;68815;48.810;44.482;2023-09-12T08:35:23;8.3;;;3;;
79346;SDS011;68815;48.810;44.482;2023-09-12T08:38:25;7;;;3.4;;
79346;SDS011;68815;48.810;44.482;2023-09-12T08:41:27;6.7;;;3.3;;
79346;SDS011;68815;48.810;44.482;2023-09-12T08:44:28;12.1;;;3.2;;
79346;SDS011;68815;48.810;44.482;2023-09-12T08:47:30;7.2;;;3.7;;
79346;SDS011;68815;48.810;44.482;2023-09-12T08:50:33;5.7;;;2.6;;
79346;SDS011;68815;48.810;44.482;2023-09-12T08:53:35;6.7;;;2.9;;
79346;SDS011;68815;48.810;44.482;2023-09-12T08:56:38;7.8;;;3.1;;
79346;SDS011;68815;48.810;44.482;2023-09-12T08:59:41;8.6;;;3.2;;
79346;SDS011;68815;48.810;44.482;2023-09-12T09:02:44;7;;;2.7;;
79346;SDS011;68815;48.810;44.482;2023-09-12T09:05:47;8.1;;;2.8;;
79346;SDS011;68815;48.810;44.482;2023-09-12T09:08:50;5.5;;;2.3;;
79346;SDS011;68815;48.810;44.482;2023-09-12T09:11:52;6.4;;;2.6;;
79346;SDS011;68815;48.810;44.482;2023-09-12T09:14:53;6.6;;;3;;
79346;SDS011;68815;48.810;44.482;2023-09-12T09:17:55;6.2;;;2.3;;
79346;SDS011;68815;48.810;44.482;2023-09-12T09:20:58;6.4;;;2.7;;
79346;SDS011;68815;48.810;44.482;2023-09-12T09:24:00;7.6;;;2.6;;
79346;SDS011;68815;48.810;44.482;2023-09-12T09:27:03;6.8;;;2.5;;
79346;SDS011;68815;48.810;44.482;2023-09-12T09:30:05;5.3;;;2.5;;
79346;SDS011;68815;48.810;44.482;2023-09-12T09:33:07;5.7;;;2.4;;
79346;SDS011;68815;48.810;44.482;2023-09-12T09:36:09;5.4;;;2.4;;
79346;SDS011;68815;48.810;44.482;2023-09-12T09:39:11;5.5;;;2.3;;
79346;SDS011;68815;48.810;44.482;2023-09-12T09:42:14;9.8;;;2.4;;
79346;SDS011;68815;48.810;44.482;2023-09-12T09:45:15;5.9;;;2.4;;
79346;SDS011;68815;48.810;44.482;2023-09-12T09:48:17;6.4;;;2.3;;
79346;SDS011;68815;48.810;44.482;2023-09-12T09:51:19;8.7;;;2.7;;
79346;SDS011;68815;48.810;44.482;2023-09-12T09:54:21;5.1;;;2.4;;
79346;SDS011;68815;48.810;44.482;2023-09-12T09:57:25;5.7;;;2.2;;
79346;SDS011;68815;48.810;44.482;2023-09-12T10:00:27;4.9;;;2.2;;
79346;SDS011;68815;48.810;44.482;2023-09-12T10:03:34;5.3;;;2.2;;
79346;SDS011;68815;48.810;44.482;2023-09-12T10:06:38;4.6;;;2;;
79346;SDS011;68815;48.810;44.482;2023-09-12T10:09:40;5.2;;;1.9;;
79346;SDS011;68815;48.810;44.482;2023-09-12T10:12:43;6.2;;;1.9;;
79346;SDS011;68815;48.810;44.482;2023-09-12T10:15:51;5.5;;;2.1;;
79346;SDS011;68815;48.810;44.482;2023-09-12T10:18:56;4;;;1.9;;
79346;SDS011;68815;48.810;44.482;2023-09-12T10:22:02;4.8;;;1.9;;
79346;SDS011;68815;48.810;44.482;2023-09-12T10:25:08;4.8;;;1.8;;
79346;SDS011;68815;48.810;44.482;2023-09-12T10:28:12;4.7;;;2;;
79346;SDS011;68815;48.810;44.482;2023-09-12T10:31:14;5.2;;;1.7;;
79346;SDS011;68815;48.810;44.482;2023-09-12T10:34:16;4.7;;;2;;
79346;SDS011;68815;48.810;44.482;2023-09-12T10:37:20;4.2;;;1.9;;
79346;SDS011;68815;48.810;44.482;2023-09-12T10:40:23;3.9;;;1.8;;
79346;SDS011;68815;48.810;44.482;2023-09-12T10:43:27;5.6;;;2.3;;
79346;SDS011;68815;48.810;44.482;2023-09-12T10:46:29;4.4;;;1.8;;
79346;SDS011;68815;48.810;44.482;2023-09-12T10:49:32;6.8;;;2;;
79346;SDS011;68815;48.810;44.482;2023-09-12T10:52:34;4.2;;;1.8;;
79346;SDS011;68815;48.810;44.482;2023-09-12T10:55:36;5.5;;;1.8;;
79346;SDS011;68815;48.810;44.482;2023-09-12T11:05:37;5.9;;;1.9;;
79346;SDS011;68815;48.810;44.482;2023-09-12T11:08:40;3.9;;;1.6;;
79346;SDS011;68815;48.810;44.482;2023-09-12T11:11:41;5.1;;;1.8;;
79346;SDS011;68815;48.810;44.482;2023-09-12T11:18:11;4.3;;;1.6;;
79346;SDS011;68815;48.810;44.482;2023-09-12T11:21:12;6.7;;;2.5;;
79346;SDS011;68815;48.810;44.482;2023-09-12T11:24:14;5.2;;;2;;
79346;SDS011;68815;48.810;44.482;2023-09-12T11:27:17;4.7;;;1.8;;
79346;SDS011;68815;48.810;44.482;2023-09-12T11:30:19;5;;;2;;
79346;SDS011;68815;48.810;44.482;2023-09-12T11:33:21;8;;;2.1;;
79346;SDS011;68815;48.810;44.482;2023-09-12T11:36:25;4.8;;;1.9;;
79346;SDS011;68815;48.810;44.482;2023-09-12T11:39:28;5;;;1.8;;
79346;SDS011;68815;48.810;44.482;2023-09-12T11:42:31;4.1;;;1.7;;
79346;SDS011;68815;48.810;44.482;2023-09-12T11:45:33;5.8;;;2;;
79346;SDS011;68815;48.810;44.482;2023-09-12T11:48:35;4.1;;;1.8;;
79346;SDS011;68815;48.810;44.482;2023-09-12T11:51:37;9.7;;;2.3;;
79346;SDS011;68815;48.810;44.482;2023-09-12T11:54:47;4.4;;;1.8;;
79346;SDS011;68815;48.810;44.482;2023-09-12T11:57:49;5;;;1.9;;
79346;SDS011;68815;48.810;44.482;2023-09-12T12:00:51;4.2;;;2;;
79346;SDS011;68815;48.810;44.482;2023-09-12T12:03:54;4.2;;;1.8;;
79346;SDS011;68815;48.810;44.482;2023-09-12T12:06:56;4.9;;;2.1;;
79346;SDS011;68815;48.810;44.482;2023-09-12T12:09:57;4.3;;;1.8;;
79346;SDS011;68815;48.810;44.482;2023-09-12T12:12:59;4.9;;;1.9;;
79346;SDS011;68815;48.810;44.482;2023-09-12T12:16:00;4.5;;;1.7;;
79346;SDS011;68815;48.810;44.482;2023-09-12T12:19:15;4.2;;;1.7;;
79346;SDS011;68815;48.810;44.482;2023-09-12T12:22:17;4.4;;;1.8;;
79346;SDS011;68815;48.810;44.482;2023-09-12T12:25:18;5.2;;;2.1;;
79346;SDS011;68815;48.810;44.482;2023-09-12T12:28:21;4.7;;;2;;
79346;SDS011;68815;48.810;44.482;2023-09-12T12:31:22;5;;;2.1;;
79346;SDS011;68815;48.810;44.482;2023-09-12T12:34:24;7.3;;;2;;
79346;SDS011;68815;48.810;44.482;2023-09-12T12:37:28;4;;;1.9;;
79346;SDS011;68815;48.810;44.482;2023-09-12T12:40:30;6.2;;;1.7;;
79346;SDS011;68815;48.810;44.482;2023-09-12T12:43:31;4.6;;;2;;
79346;SDS011;68815;48.810;44.482;2023-09-12T12:46:33;5.4;;;2;;
79346;SDS011;68815;48.810;44.482;2023-09-12T12:49:36;5.3;;;1.8;;
79346;SDS011;68815;48.810;44.482;2023-09-12T12:52:38;6.1;;;1.6;;
79346;SDS011;68815;48.810;44.482;2023-09-12T12:55:40;4.7;;;1.7;;
79346;SDS011;68815;48.810;44.482;2023-09-12T12:58:47;3.7;;;1.7;;
79346;SDS011;68815;48.810;44.482;2023-09-12T13:01:49;6.6;;;1.7;;
79346;SDS011;68815;48.810;44.482;2023-09-12T13:04:52;4.6;;;1.8;;
79346;SDS011;68815;48.810;44.482;2023-09-12T13:07:54;4.7;;;1.6;;
79346;SDS011;68815;48.810;44.482;2023-09-12T13:10:56;6.4;;;1.8;;
79346;SDS011;68815;48.810;44.482;2023-09-12T13:13:57;4.7;;;1.5;;
79346;SDS011;68815;48.810;44.482;2023-09-12T13:16:59;5.9;;;1.8;;
79346;SDS011;68815;48.810;44.482;2023-09-12T13:20:00;6.5;;;2;;
79346;SDS011;68815;48.810;44.482;2023-09-12T13:23:02;5.5;;;1.6;;
79346;SDS011;68815;48.810;44.482;2023-09-12T13:26:04;4.5;;;1.7;;
79346;SDS011;68815;48.810;44.482;2023-09-12T13:29:07;4.5;;;1.4;;
79346;SDS011;68815;48.810;44.482;2023-09-12T13:32:08;6.2;;;1.6;;
79346;SDS011;68815;48.810;44.482;2023-09-12T13:35:10;5.7;;;1.5;;
79346;SDS011;68815;48.810;44.482;2023-09-12T13:38:11;4.8;;;1.3;;
79346;SDS011;68815;48.810;44.482;2023-09-12T13:41:13;5;;;1.4;;
79346;SDS011;68815;48.810;44.482;2023-09-12T13:44:14;3.9;;;1.3;;
79346;SDS011;68815;48.810;44.482;2023-09-12T13:47:16;5.8;;;1.7;;
79346;SDS011;68815;48.810;44.482;2023-09-12T13:50:17;10.4;;;1.7;;
79346;SDS011;68815;48.810;44.482;2023-09-12T13:53:19;6.1;;;1.6;;
79346;SDS011;68815;48.810;44.482;2023-09-12T13:56:21;4.7;;;1.4;;
79346;SDS011;68815;48.810;44.482;2023-09-12T13:59:23;5.5;;;1.7;;
79346;SDS011;68815;48.810;44.482;2023-09-12T14:02:25;4.7;;;1.4;;
79346;SDS011;68815;48.810;44.482;2023-09-12T14:05:26;3.8;;;1.7;;
79346;SDS011;68815;48.810;44.482;2023-09-12T14:08:28;6.8;;;2.9;;
79346;SDS011;68815;48.810;44.482;2023-09-12T14:11:29;4.6;;;1.9;;
79346;SDS011;68815;48.810;44.482;2023-09-12T14:14:30;9.7;;;2;;
79346;SDS011;68815;48.810;44.482;2023-09-12T14:17:32;5.5;;;1.9;;
79346;SDS011;68815;48.810;44.482;2023-09-12T14:20:33;5.5;;;2.3;;
79346;SDS011;68815;48.810;44.482;2023-09-12T14:23:35;5.8;;;1.6;;
79346;SDS011;68815;48.810;44.482;2023-09-12T14:26:36;5.3;;;2.1;;
79346;SDS011;68815;48.810;44.482;2023-09-12T14:29:38;6.1;;;1.5;;
79346;SDS011;68815;48.810;44.482;2023-09-12T14:32:39;9.8;;;2.1;;
79346;SDS011;68815;48.810;44.482;2023-09-12T14:38:53;9.2;;;1.9;;
79346;SDS011;68815;48.810;44.482;2023-09-12T14:41:55;13.2;;;2.3;;
79346;SDS011;68815;48.810;44.482;2023-09-12T14:44:56;7.9;;;2.3;;
79346;SDS011;68815;48.810;44.482;2023-09-12T14:51:29;17.6;;;5.2;;
79346;SDS011;68815;48.810;44.482;2023-09-12T14:54:31;8.2;;;2.3;;
79346;SDS011;68815;48.810;44.482;2023-09-12T14:57:33;5.6;;;1.5;;
79346;SDS011;68815;48.810;44.482;2023-09-12T15:00:34;4.4;;;1.4;;
79346;SDS011;68815;48.810;44.482;2023-09-12T15:03:36;7.9;;;1.8;;
79346;SDS011;68815;48.810;44.482;2023-09-12T15:06:37;5.9;;;1.6;;
79346;SDS011;68815;48.810;44.482;2023-09-12T15:09:39;5.7;;;2.4;;
79346;SDS011;68815;48.810;44.482;2023-09-12T15:12:40;7.4;;;2.3;;
79346;SDS011;68815;48.810;44.482;2023-09-12T15:15:42;11.5;;;3.1;;
79346;SDS011;68815;48.810;44.482;2023-09-12T15:18:44;9.7;;;3.6;;
79346;SDS011;68815;48.810;44.482;2023-09-12T15:21:46;12;;;2.7;;
79346;SDS011;68815;48.810;44.482;2023-09-12T15:24:49;10.1;;;2.1;;
79346;SDS011;68815;48.810;44.482;2023-09-12T15:27:50;13.6;;;2.6;;
79346;SDS011;68815;48.810;44.482;2023-09-12T15:30:53;11.8;;;2.4;;
79346;SDS011;68815;48.810;44.482;2023-09-12T15:33:55;12.3;;;2.4;;
79346;SDS011;68815;48.810;44.482;2023-09-12T15:37:06;19.9;;;3.9;;
79346;SDS011;68815;48.810;44.482;2023-09-12T15:40:09;7.2;;;2.4;;
79346;SDS011;68815;48.810;44.482;2023-09-12T15:43:11;13.4;;;3;;
79346;SDS011;68815;48.810;44.482;2023-09-12T15:46:13;13;;;2.4;;
79346;SDS011;68815;48.810;44.482;2023-09-12T15:49:15;13.5;;;2.5;;
79346;SDS011;68815;48.810;44.482;2023-09-12T15:52:16;9.3;;;2.3;;
79346;SDS011;68815;48.810;44.482;2023-09-12T15:55:21;7.1;;;2.6;;
79346;SDS011;68815;48.810;44.482;2023-09-12T15:58:22;8.7;;;2.2;;
79346;SDS011;68815;48.810;44.482;2023-09-12T16:01:24;10.3;;;2.2;;
79346;SDS011;68815;48.810;44.482;2023-09-12T16:04:26;11.9;;;2.3;;
79346;SDS011;68815;48.810;44.482;2023-09-12T16:07:28;6.7;;;2.7;;
79346;SDS011;68815;48.810;44.482;2023-09-12T16:10:30;11.8;;;2.5;;
79346;SDS011;68815;48.810;44.482;2023-09-12T16:13:32;12.1;;;3.3;;
79346;SDS011;68815;48.810;44.482;2023-09-12T16:16:33;10.7;;;4;;
79346;SDS011;68815;48.810;44.482;2023-09-12T16:22:55;22.5;;;5.7;;
79346;SDS011;68815;48.810;44.482;2023-09-12T16:25:57;19.8;;;6.4;;
79346;SDS011;68815;48.810;44.482;2023-09-12T16:28:58;26.9;;;8.6;;
79346;SDS011;68815;48.810;44.482;2023-09-12T16:32:00;35.1;;;12.2;;
79346;SDS011;68815;48.810;44.482;2023-09-12T16:35:01;32.9;;;10.4;;
79346;SDS011;68815;48.810;44.482;2023-09-12T16:38:05;31.8;;;9.5;;
79346;SDS011;68815;48.810;44.482;2023-09-12T16:41:07;39.3;;;10.9;;
79346;SDS011;68815;48.810;44.482;2023-09-12T16:44:08;36;;;11.1;;
79346;SDS011;68815;48.810;44.482;2023-09-12T16:47:11;37.8;;;11.2;;
79346;SDS011;68815;48.810;44.482;2023-09-12T16:50:13;36.5;;;12.3;;
79346;SDS011;68815;48.810;44.482;2023-09-12T16:53:15;32.8;;;10.7;;
79346;SDS011;68815;48.810;44.482;2023-09-12T16:56:16;30.2;;;11;;
79346;SDS011;68815;48.810;44.482;2023-09-12T16:59:17;31.3;;;10.9;;
79346;SDS011;68815;48.810;44.482;2023-09-12T17:02:19;29.5;;;10.8;;
79346;SDS011;68815;48.810;44.482;2023-09-12T17:05:21;33.3;;;10.8;;
79346;SDS011;68815;48.810;44.482;2023-09-12T17:08:22;33;;;11;;
79346;SDS011;68815;48.810;44.482;2023-09-12T17:11:24;34.3;;;10.7;;
79346;SDS011;68815;48.810;44.482;2023-09-12T17:14:25;38.1;;;11.2;;
79346;SDS011;68815;48.810;44.482;2023-09-12T17:17:27;37.9;;;11.8;;
79346;SDS011;68815;48.810;44.482;2023-09-12T17:20:28;31.1;;;11.1;;
79346;SDS011;68815;48.810;44.482;2023-09-12T17:23:30;41.2;;;13.2;;
79346;SDS011;68815;48.810;44.482;2023-09-12T17:26:32;30.3;;;10.5;;
79346;SDS011;68815;48.810;44.482;2023-09-12T17:29:33;31.3;;;9.1;;
79346;SDS011;68815;48.810;44.482;2023-09-12T17:32:35;26;;;8.7;;
79346;SDS011;68815;48.810;44.482;2023-09-12T17:35:36;25.4;;;7.3;;
79346;SDS011;68815;48.810;44.482;2023-09-12T17:38:39;19.8;;;7;;
79346;SDS011;68815;48.810;44.482;2023-09-12T17:41:42;18.7;;;7.5;;
79346;SDS011;68815;48.810;44.482;2023-09-12T17:44:43;16.7;;;6.4;;
79346;SDS011;68815;48.810;44.482;2023-09-12T17:47:45;18.1;;;5.7;;
79346;SDS011;68815;48.810;44.482;2023-09-12T17:50:50;17.9;;;5.1;;
79346;SDS011;68815;48.810;44.482;2023-09-12T17:53:51;12.2;;;4.8;;
79346;SDS011;68815;48.810;44.482;2023-09-12T17:56:53;18.7;;;5.1;;
79346;SDS011;68815;48.810;44.482;2023-09-12T17:59:55;14.1;;;4.9;;
79346;SDS011;68815;48.810;44.482;2023-09-12T18:02:57;17.5;;;5.7;;
79346;SDS011;68815;48.810;44.482;2023-09-12T18:05:59;20;;;7.9;;
79346;SDS011;68815;48.810;44.482;2023-09-12T18:09:00;19;;;7.3;;
79346;SDS011;68815;48.810;44.482;2023-09-12T18:12:02;18.3;;;6.3;;
79346;SDS011;68815;48.810;44.482;2023-09-12T18:15:04;16.6;;;5.8;;
79346;SDS011;68815;48.810;44.482;2023-09-12T18:18:07;17.7;;;6;;
79346;SDS011;68815;48.810;44.482;2023-09-12T18:21:08;14.9;;;6.1;;
79346;SDS011;68815;48.810;44.482;2023-09-12T18:24:11;12.9;;;5;;
79346;SDS011;68815;48.810;44.482;2023-09-12T18:27:12;16.9;;;6.5;;
79346;SDS011;68815;48.810;44.482;2023-09-12T18:30:14;13.8;;;4.9;;
79346;SDS011;68815;48.810;44.482;2023-09-12T18:33:15;10;;;4.2;;
79346;SDS011;68815;48.810;44.482;2023-09-12T18:36:16;13.6;;;4.5;;
79346;SDS011;68815;48.810;44.482;2023-09-12T18:39:18;11.5;;;4.8;;
79346;SDS011;68815;48.810;44.482;2023-09-12T18:42:19;19.1;;;6.9;;
79346;SDS011;68815;48.810;44.482;2023-09-12T18:45:21;28.6;;;7.4;;
79346;SDS011;68815;48.810;44.482;2023-09-12T18:48:22;15.3;;;5.5;;
79346;SDS011;68815;48.810;44.482;2023-09-12T18:51:24;16.1;;;5.2;;
79346;SDS011;68815;48.810;44.482;2023-09-12T18:54:25;12.2;;;5.4;;
79346;SDS011;68815;48.810;44.482;2023-09-12T18:57:27;12.6;;;4.3;;